sensor_id;sensor_type;location;lat;lon;timestamp;pressure;altitude;pressure_sealevel;temperature;humidity
51972;BME280;37991;49.662;10.060;2022-09-12T00:01:55;99509.00;;;11.51;100.00
51972;BME280;37991;49.662;10.060;2022-09-12T00:04:20;99515.06;;;11.52;100.00
51972;BME280;37991;49.662;10.060;2022-09-12T00:06:46;99508.06;;;11.52;100.00
51972;BME280;37991;49.662;10.060;2022-09-12T00:09:12;99508.28;;;11.49;100.00
51972;BME280;37991;49.662;10.060;2022-09-12T00:11:40;99499.66;;;11.47;100.00
51972;BME280;37991;49.662;10.060;2022-09-12T00:14:07;99496.00;;;11.50;100.00
51972;BME280;37991;49.662;10.060;2022-09-12T00:16:34;99482.03;;;11.49;100.00
51972;BME280;37991;49.662;10.060;2022-09-12T00:19:01;99491.94;;;11.46;100.00
51972;BME280;37991;49.662;10.060;2022-09-12T00:21:27;99494.56;;;11.46;100.00
51972;BME280;37991;49.662;10.060;2022-09-12T00:23:53;99487.81;;;11.41;100.00
51972;BME280;37991;49.662;10.060;2022-09-12T00:26:19;99481.88;;;11.39;100.00
51972;BME280;37991;49.662;10.060;2022-09-12T00:28:46;99484.59;;;11.38;100.00
51972;BME280;37991;49.662;10.060;2022-09-12T00:31:14;99483.13;;;11.34;100.00
51972;BME280;37991;49.662;10.060;2022-09-12T00:33:41;99479.56;;;11.35;100.00
51972;BME280;37991;49.662;10.060;2022-09-12T00:36:14;99477.28;;;11.30;100.00
51972;BME280;37991;49.662;10.060;2022-09-12T00:38:41;99467.81;;;11.28;100.00
51972;BME280;37991;49.662;10.060;2022-09-12T00:41:12;99477.06;;;11.33;100.00
51972;BME280;37991;49.662;10.060;2022-09-12T00:43:42;99477.28;;;11.30;100.00
51972;BME280;37991;49.662;10.060;2022-09-12T00:46:20;99472.72;;;11.32;100.00
51972;BME280;37991;49.662;10.060;2022-09-12T00:51:48;99470.88;;;11.22;100.00
51972;BME280;37991;49.662;10.060;2022-09-12T00:54:19;99471.63;;;11.24;100.00
51972;BME280;37991;49.662;10.060;2022-09-12T00:56:48;99462.41;;;11.18;100.00
51972;BME280;37991;49.662;10.060;2022-09-12T00:59:19;99455.50;;;11.17;100.00
51972;BME280;37991;49.662;10.060;2022-09-12T01:01:47;99457.38;;;11.15;100.00
51972;BME280;37991;49.662;10.060;2022-09-12T01:04:15;99452.22;;;11.13;100.00
51972;BME280;37991;49.662;10.060;2022-09-12T01:06:42;99453.19;;;11.12;100.00
51972;BME280;37991;49.662;10.060;2022-09-12T01:09:11;99453.09;;;11.14;100.00
51972;BME280;37991;49.662;10.060;2022-09-12T01:11:38;99453.56;;;11.19;100.00
51972;BME280;37991;49.662;10.060;2022-09-12T01:14:05;99450.34;;;11.15;100.00
51972;BME280;37991;49.662;10.060;2022-09-12T01:16:34;99447.31;;;11.09;100.00
51972;BME280;37991;49.662;10.060;2022-09-12T01:19:30;99446.28;;;10.99;100.00
51972;BME280;37991;49.662;10.060;2022-09-12T01:30:44;99440.63;;;10.92;100.00
51972;BME280;37991;49.662;10.060;2022-09-12T01:33:18;99447.34;;;10.96;100.00
51972;BME280;37991;49.662;10.060;2022-09-12T01:41:29;99438.75;;;10.81;100.00
51972;BME280;37991;49.662;10.060;2022-09-12T01:46:32;99437.28;;;10.77;100.00
51972;BME280;37991;49.662;10.060;2022-09-12T01:49:06;99435.63;;;10.76;100.00
51972;BME280;37991;49.662;10.060;2022-09-12T01:54:42;99435.00;;;10.73;100.00
51972;BME280;37991;49.662;10.060;2022-09-12T01:57:14;99433.44;;;10.70;100.00
51972;BME280;37991;49.662;10.060;2022-09-12T01:59:47;99430.81;;;10.70;100.00
51972;BME280;37991;49.662;10.060;2022-09-12T02:05:07;99426.81;;;10.64;100.00
51972;BME280;37991;49.662;10.060;2022-09-12T02:07:52;99427.97;;;10.60;100.00
51972;BME280;37991;49.662;10.060;2022-09-12T02:10:24;99430.59;;;10.60;100.00
51972;BME280;37991;49.662;10.060;2022-09-12T02:13:05;99429.56;;;10.63;100.00
51972;BME280;37991;49.662;10.060;2022-09-12T02:15:36;99426.19;;;10.61;100.00
51972;BME280;37991;49.662;10.060;2022-09-12T02:18:04;99425.56;;;10.57;100.00
51972;BME280;37991;49.662;10.060;2022-09-12T02:20:35;99430.91;;;10.56;99.97
51972;BME280;37991;49.662;10.060;2022-09-12T02:23:05;99420.75;;;10.64;100.00
51972;BME280;37991;49.662;10.060;2022-09-12T02:25:33;99420.53;;;10.54;100.00
51972;BME280;37991;49.662;10.060;2022-09-12T02:28:05;99425.25;;;10.62;100.00
51972;BME280;37991;49.662;10.060;2022-09-12T02:30:42;99424.09;;;10.66;99.78
51972;BME280;37991;49.662;10.060;2022-09-12T02:33:45;99423.69;;;10.59;98.97
51972;BME280;37991;49.662;10.060;2022-09-12T02:36:33;99425.16;;;10.51;99.82
51972;BME280;37991;49.662;10.060;2022-09-12T02:39:02;99415.72;;;10.48;99.76
51972;BME280;37991;49.662;10.060;2022-09-12T02:41:27;99422.41;;;10.39;100.00
51972;BME280;37991;49.662;10.060;2022-09-12T02:43:53;99425.44;;;10.33;100.00
51972;BME280;37991;49.662;10.060;2022-09-12T02:46:32;99421.78;;;10.36;100.00
51972;BME280;37991;49.662;10.060;2022-09-12T02:49:00;99422.75;;;10.35;99.66
51972;BME280;37991;49.662;10.060;2022-09-12T02:51:26;99425.03;;;10.39;99.63
51972;BME280;37991;49.662;10.060;2022-09-12T02:53:52;99420.22;;;10.33;99.36
51972;BME280;37991;49.662;10.060;2022-09-12T02:56:22;99423.03;;;10.30;99.82
51972;BME280;37991;49.662;10.060;2022-09-12T02:58:50;99419.78;;;10.39;99.09
51972;BME280;37991;49.662;10.060;2022-09-12T03:01:29;99424.53;;;10.34;99.48
51972;BME280;37991;49.662;10.060;2022-09-12T03:06:34;99416.50;;;10.23;100.00
51972;BME280;37991;49.662;10.060;2022-09-12T03:09:15;99414.84;;;10.22;100.00
51972;BME280;37991;49.662;10.060;2022-09-12T03:17:45;99405.41;;;10.19;99.46
51972;BME280;37991;49.662;10.060;2022-09-12T03:20:23;99409.31;;;10.27;99.47
51972;BME280;37991;49.662;10.060;2022-09-12T03:22:56;99423.84;;;10.18;99.42
51972;BME280;37991;49.662;10.060;2022-09-12T03:25:35;99420.50;;;10.16;99.52
51972;BME280;37991;49.662;10.060;2022-09-12T03:28:10;99428.47;;;10.27;98.77
51972;BME280;37991;49.662;10.060;2022-09-12T03:30:40;99416.25;;;10.28;98.43
51972;BME280;37991;49.662;10.060;2022-09-12T03:33:10;99417.16;;;10.27;98.41
51972;BME280;37991;49.662;10.060;2022-09-12T03:35:35;99430.00;;;10.17;98.42
51972;BME280;37991;49.662;10.060;2022-09-12T03:38:00;99425.41;;;10.20;98.01
51972;BME280;37991;49.662;10.060;2022-09-12T03:40:26;99433.03;;;10.11;98.39
51972;BME280;37991;49.662;10.060;2022-09-12T03:42:51;99428.84;;;10.08;99.06
51972;BME280;37991;49.662;10.060;2022-09-12T03:45:16;99432.50;;;10.06;99.20
51972;BME280;37991;49.662;10.060;2022-09-12T03:47:42;99430.38;;;9.98;99.65
51972;BME280;37991;49.662;10.060;2022-09-12T03:50:07;99435.84;;;10.08;99.38
51972;BME280;37991;49.662;10.060;2022-09-12T03:52:33;99435.84;;;10.08;99.74
51972;BME280;37991;49.662;10.060;2022-09-12T03:54:58;99431.78;;;10.16;99.49
51972;BME280;37991;49.662;10.060;2022-09-12T03:57:23;99430.13;;;10.15;99.39
51972;BME280;37991;49.662;10.060;2022-09-12T03:59:49;99429.28;;;10.15;99.64
51972;BME280;37991;49.662;10.060;2022-09-12T04:02:15;99435.59;;;10.25;99.72
51972;BME280;37991;49.662;10.060;2022-09-12T04:04:40;99429.75;;;10.34;99.16
51972;BME280;37991;49.662;10.060;2022-09-12T04:07:10;99432.19;;;10.37;98.89
51972;BME280;37991;49.662;10.060;2022-09-12T04:09:35;99425.44;;;10.33;99.71
51972;BME280;37991;49.662;10.060;2022-09-12T04:12:01;99426.41;;;10.32;100.00
51972;BME280;37991;49.662;10.060;2022-09-12T04:14:26;99424.72;;;10.31;100.00
51972;BME280;37991;49.662;10.060;2022-09-12T04:16:51;99419.16;;;10.36;100.00
51972;BME280;37991;49.662;10.060;2022-09-12T04:19:17;99419.28;;;10.34;100.00
51972;BME280;37991;49.662;10.060;2022-09-12T04:21:42;99420.22;;;10.33;100.00
51972;BME280;37991;49.662;10.060;2022-09-12T04:24:07;99415.31;;;10.41;100.00
51972;BME280;37991;49.662;10.060;2022-09-12T04:26:33;99423.91;;;10.43;100.00
51972;BME280;37991;49.662;10.060;2022-09-12T04:28:58;99423.47;;;10.50;100.00
51972;BME280;37991;49.662;10.060;2022-09-12T04:31:24;99429.97;;;10.57;100.00
51972;BME280;37991;49.662;10.060;2022-09-12T04:33:54;99428.81;;;10.61;100.00
51972;BME280;37991;49.662;10.060;2022-09-12T04:36:20;99427.66;;;10.78;100.00
51972;BME280;37991;49.662;10.060;2022-09-12T04:38:47;99425.56;;;10.83;100.00
51972;BME280;37991;49.662;10.060;2022-09-12T04:41:21;99432.25;;;10.74;100.00
51972;BME280;37991;49.662;10.060;2022-09-12T04:43:51;99432.66;;;10.93;100.00
51972;BME280;37991;49.662;10.060;2022-09-12T04:46:18;99430.59;;;10.86;100.00
51972;BME280;37991;49.662;10.060;2022-09-12T04:48:45;99428.81;;;10.74;100.00
51972;BME280;37991;49.662;10.060;2022-09-12T04:51:13;99434.88;;;10.74;100.00
51972;BME280;37991;49.662;10.060;2022-09-12T04:53:40;99425.56;;;10.70;100.00
51972;BME280;37991;49.662;10.060;2022-09-12T04:56:07;99427.44;;;10.68;100.00
51972;BME280;37991;49.662;10.060;2022-09-12T04:58:33;99431.56;;;10.59;100.00
51972;BME280;37991;49.662;10.060;2022-09-12T05:01:10;99437.00;;;10.56;100.00
51972;BME280;37991;49.662;10.060;2022-09-12T05:03:37;99432.25;;;10.48;100.00
51972;BME280;37991;49.662;10.060;2022-09-12T05:06:08;99434.16;;;10.46;100.00
51972;BME280;37991;49.662;10.060;2022-09-12T05:08:34;99434.88;;;10.48;100.00
51972;BME280;37991;49.662;10.060;2022-09-12T05:11:05;99434.88;;;10.48;100.00
51972;BME280;37991;49.662;10.060;2022-09-12T05:13:32;99444.13;;;10.54;100.00
51972;BME280;37991;49.662;10.060;2022-09-12T05:15:59;99435.50;;;10.52;100.00
51972;BME280;37991;49.662;10.060;2022-09-12T05:18:25;99438.53;;;10.59;100.00
51972;BME280;37991;49.662;10.060;2022-09-12T05:20:52;99440.25;;;10.60;100.00
51972;BME280;37991;49.662;10.060;2022-09-12T05:23:17;99445.06;;;10.66;100.00
51972;BME280;37991;49.662;10.060;2022-09-12T05:25:49;99453.34;;;10.73;100.00
51972;BME280;37991;49.662;10.060;2022-09-12T05:28:15;99441.56;;;10.78;100.00
51972;BME280;37991;49.662;10.060;2022-09-12T05:30:40;99448.31;;;10.82;100.00
51972;BME280;37991;49.662;10.060;2022-09-12T05:33:06;99448.81;;;10.87;100.00
51972;BME280;37991;49.662;10.060;2022-09-12T05:35:31;99453.63;;;10.93;100.00
51972;BME280;37991;49.662;10.060;2022-09-12T05:37:57;99447.88;;;11.01;100.00
51972;BME280;37991;49.662;10.060;2022-09-12T05:40:22;99462.09;;;11.10;100.00
51972;BME280;37991;49.662;10.060;2022-09-12T05:42:48;99454.22;;;11.10;100.00
51972;BME280;37991;49.662;10.060;2022-09-12T05:45:13;99458.97;;;11.05;100.00
51972;BME280;37991;49.662;10.060;2022-09-12T05:47:39;99457.16;;;11.18;100.00
51972;BME280;37991;49.662;10.060;2022-09-12T05:50:04;99454.75;;;11.15;100.00
51972;BME280;37991;49.662;10.060;2022-09-12T05:52:35;99457.44;;;11.26;100.00
51972;BME280;37991;49.662;10.060;2022-09-12T05:55:00;99465.31;;;11.26;100.00
51972;BME280;37991;49.662;10.060;2022-09-12T05:57:26;99465.63;;;11.22;100.00
51972;BME280;37991;49.662;10.060;2022-09-12T05:59:51;99466.88;;;11.29;100.00
51972;BME280;37991;49.662;10.060;2022-09-12T06:02:17;99468.03;;;11.25;100.00
51972;BME280;37991;49.662;10.060;2022-09-12T06:04:42;99462.47;;;11.29;100.00
51972;BME280;37991;49.662;10.060;2022-09-12T06:07:07;99462.59;;;11.28;100.00
51972;BME280;37991;49.662;10.060;2022-09-12T06:09:33;99469.22;;;11.21;100.00
51972;BME280;37991;49.662;10.060;2022-09-12T06:11:58;99465.75;;;11.20;100.00
51972;BME280;37991;49.662;10.060;2022-09-12T06:14:24;99468.00;;;11.37;100.00
51972;BME280;37991;49.662;10.060;2022-09-12T06:16:50;99467.91;;;11.26;100.00
51972;BME280;37991;49.662;10.060;2022-09-12T06:19:17;99454.97;;;11.12;100.00
51972;BME280;37991;49.662;10.060;2022-09-12T06:21:44;99462.41;;;11.18;100.00
51972;BME280;37991;49.662;10.060;2022-09-12T06:24:09;99455.94;;;11.35;100.00
51972;BME280;37991;49.662;10.060;2022-09-12T06:26:35;99457.22;;;11.29;100.00
51972;BME280;37991;49.662;10.060;2022-09-12T06:29:01;99455.69;;;11.27;100.00
51972;BME280;37991;49.662;10.060;2022-09-12T06:31:35;99458.38;;;11.25;100.00
51972;BME280;37991;49.662;10.060;2022-09-12T06:34:06;99463.72;;;11.36;100.00
51972;BME280;37991;49.662;10.060;2022-09-12T06:36:35;99457.81;;;11.46;100.00
51972;BME280;37991;49.662;10.060;2022-09-12T06:39:10;99459.31;;;11.61;100.00
51972;BME280;37991;49.662;10.060;2022-09-12T06:41:36;99462.28;;;11.56;100.00
51972;BME280;37991;49.662;10.060;2022-09-12T06:44:01;99461.09;;;11.60;100.00
51972;BME280;37991;49.662;10.060;2022-09-12T06:46:27;99459.72;;;11.68;100.00
51972;BME280;37991;49.662;10.060;2022-09-12T06:48:54;99465.19;;;11.64;100.00
51972;BME280;37991;49.662;10.060;2022-09-12T06:51:20;99468.72;;;11.76;100.00
51972;BME280;37991;49.662;10.060;2022-09-12T06:53:46;99464.91;;;11.80;100.00
51972;BME280;37991;49.662;10.060;2022-09-12T06:56:14;99461.88;;;11.86;100.00
51972;BME280;37991;49.662;10.060;2022-09-12T06:58:41;99464.16;;;11.91;100.00
51972;BME280;37991;49.662;10.060;2022-09-12T07:01:13;99462.66;;;12.00;100.00
51972;BME280;37991;49.662;10.060;2022-09-12T07:03:40;99465.00;;;11.92;100.00
51972;BME280;37991;49.662;10.060;2022-09-12T07:06:07;99466.28;;;11.86;100.00
51972;BME280;37991;49.662;10.060;2022-09-12T07:08:34;99461.94;;;11.98;100.00
51972;BME280;37991;49.662;10.060;2022-09-12T07:11:18;99454.44;;;12.04;100.00
51972;BME280;37991;49.662;10.060;2022-09-12T07:13:46;99457.06;;;12.04;100.00
51972;BME280;37991;49.662;10.060;2022-09-12T07:16:12;99451.44;;;12.09;100.00
51972;BME280;37991;49.662;10.060;2022-09-12T07:18:38;99455.31;;;12.16;100.00
51972;BME280;37991;49.662;10.060;2022-09-12T07:21:06;99460.72;;;12.26;100.00
51972;BME280;37991;49.662;10.060;2022-09-12T07:23:32;99448.88;;;12.31;100.00
51972;BME280;37991;49.662;10.060;2022-09-12T07:25:59;99459.03;;;12.25;100.00
51972;BME280;37991;49.662;10.060;2022-09-12T07:28:29;99450.44;;;12.23;100.00
51972;BME280;37991;49.662;10.060;2022-09-12T07:30:55;99456.44;;;12.36;100.00
51972;BME280;37991;49.662;10.060;2022-09-12T07:33:23;99464.41;;;12.34;100.00
51972;BME280;37991;49.662;10.060;2022-09-12T07:35:49;99453.66;;;12.26;100.00
51972;BME280;37991;49.662;10.060;2022-09-12T07:38:15;99462.16;;;12.30;100.00
51972;BME280;37991;49.662;10.060;2022-09-12T07:40:41;99466.72;;;12.39;100.00
51972;BME280;37991;49.662;10.060;2022-09-12T07:43:06;99467.09;;;12.46;100.00
51972;BME280;37991;49.662;10.060;2022-09-12T07:45:32;99464.91;;;12.40;100.00
51972;BME280;37991;49.662;10.060;2022-09-12T07:47:57;99465.75;;;12.40;100.00
51972;BME280;37991;49.662;10.060;2022-09-12T07:50:22;99462.66;;;12.46;100.00
51972;BME280;37991;49.662;10.060;2022-09-12T07:52:48;99465.44;;;12.56;100.00
51972;BME280;37991;49.662;10.060;2022-09-12T07:55:13;99468.78;;;12.69;100.00
51972;BME280;37991;49.662;10.060;2022-09-12T07:57:39;99465.22;;;12.82;100.00
51972;BME280;37991;49.662;10.060;2022-09-12T08:00:04;99466.66;;;12.74;100.00
51972;BME280;37991;49.662;10.060;2022-09-12T08:02:37;99468.31;;;12.75;100.00
51972;BME280;37991;49.662;10.060;2022-09-12T08:05:03;99463.28;;;12.61;100.00
51972;BME280;37991;49.662;10.060;2022-09-12T08:07:28;99463.53;;;12.69;100.00
51972;BME280;37991;49.662;10.060;2022-09-12T08:09:53;99464.13;;;12.73;100.00
51972;BME280;37991;49.662;10.060;2022-09-12T08:12:19;99459.97;;;12.70;100.00
51972;BME280;37991;49.662;10.060;2022-09-12T08:14:44;99467.72;;;12.72;100.00
51972;BME280;37991;49.662;10.060;2022-09-12T08:17:10;99464.84;;;12.75;100.00
51972;BME280;37991;49.662;10.060;2022-09-12T08:19:35;99468.34;;;12.87;100.00
51972;BME280;37991;49.662;10.060;2022-09-12T08:22:01;99464.75;;;12.99;100.00
51972;BME280;37991;49.662;10.060;2022-09-12T08:24:27;99468.06;;;13.23;100.00
51972;BME280;37991;49.662;10.060;2022-09-12T08:26:52;99465.44;;;13.23;100.00
51972;BME280;37991;49.662;10.060;2022-09-12T08:29:17;99461.16;;;13.45;100.00
51972;BME280;37991;49.662;10.060;2022-09-12T08:31:43;99454.69;;;13.49;100.00
51972;BME280;37991;49.662;10.060;2022-09-12T08:34:08;99454.16;;;13.66;100.00
51972;BME280;37991;49.662;10.060;2022-09-12T08:36:34;99462.84;;;13.78;100.00
51972;BME280;37991;49.662;10.060;2022-09-12T08:39:03;99462.09;;;13.87;100.00
51972;BME280;37991;49.662;10.060;2022-09-12T08:41:31;99459.47;;;13.87;100.00
51972;BME280;37991;49.662;10.060;2022-09-12T08:49:31;99456.09;;;13.96;100.00
51972;BME280;37991;49.662;10.060;2022-09-12T08:52:05;99450.53;;;14.11;100.00
51972;BME280;37991;49.662;10.060;2022-09-12T08:54:31;99446.53;;;14.16;100.00
51972;BME280;37991;49.662;10.060;2022-09-12T08:57:02;99450.72;;;14.40;100.00
51972;BME280;37991;49.662;10.060;2022-09-12T08:59:39;99441.00;;;14.52;100.00
51972;BME280;37991;49.662;10.060;2022-09-12T09:11:36;99442.44;;;14.96;98.36
51972;BME280;37991;49.662;10.060;2022-09-12T09:13:53;99445.31;;;15.24;97.08
51972;BME280;37991;49.662;10.060;2022-09-12T09:16:42;99446.91;;;15.05;95.72
51972;BME280;37991;49.662;10.060;2022-09-12T09:19:19;99444.94;;;15.28;96.32
51972;BME280;37991;49.662;10.060;2022-09-12T09:21:51;99445.81;;;15.58;96.44
51972;BME280;37991;49.662;10.060;2022-09-12T09:24:23;99440.59;;;15.87;94.33
51972;BME280;37991;49.662;10.060;2022-09-12T09:26:55;99446.97;;;15.94;93.40
51972;BME280;37991;49.662;10.060;2022-09-12T09:29:40;99441.69;;;15.85;92.35
51972;BME280;37991;49.662;10.060;2022-09-12T09:32:15;99441.41;;;16.17;92.53
51972;BME280;37991;49.662;10.060;2022-09-12T09:34:42;99435.66;;;16.50;90.71
51972;BME280;37991;49.662;10.060;2022-09-12T09:37:29;99427.13;;;16.66;89.99
51972;BME280;37991;49.662;10.060;2022-09-12T09:40:23;99426.41;;;16.64;90.44
51972;BME280;37991;49.662;10.060;2022-09-12T09:43:15;99428.41;;;17.00;88.56
51972;BME280;37991;49.662;10.060;2022-09-12T09:45:44;99418.59;;;17.10;88.87
51972;BME280;37991;49.662;10.060;2022-09-12T09:50:36;99409.59;;;17.30;87.03
51972;BME280;37991;49.662;10.060;2022-09-12T09:53:02;99405.97;;;17.49;86.94
51972;BME280;37991;49.662;10.060;2022-09-12T09:55:41;99414.38;;;17.62;86.54
51972;BME280;37991;49.662;10.060;2022-09-12T09:58:07;99415.75;;;17.66;85.91
51972;BME280;37991;49.662;10.060;2022-09-12T10:00:34;99413.63;;;17.70;85.97
51972;BME280;37991;49.662;10.060;2022-09-12T10:05:48;99407.66;;;17.68;86.08
51972;BME280;37991;49.662;10.060;2022-09-12T10:08:30;99410.53;;;17.75;85.14
51972;BME280;37991;49.662;10.060;2022-09-12T10:18:51;99375.97;;;18.20;84.40
51972;BME280;37991;49.662;10.060;2022-09-12T10:21:21;99384.97;;;18.27;82.63
51972;BME280;37991;49.662;10.060;2022-09-12T10:24:06;99376.75;;;18.39;81.87
51972;BME280;37991;49.662;10.060;2022-09-12T10:26:39;99366.16;;;18.39;82.43
51972;BME280;37991;49.662;10.060;2022-09-12T10:29:18;99377.53;;;18.57;81.31
51972;BME280;37991;49.662;10.060;2022-09-12T10:31:56;99372.63;;;18.70;79.71
51972;BME280;37991;49.662;10.060;2022-09-12T10:34:28;99370.72;;;18.54;80.58
51972;BME280;37991;49.662;10.060;2022-09-12T10:37:02;99367.97;;;18.64;80.39
51972;BME280;37991;49.662;10.060;2022-09-12T10:39:29;99371.72;;;18.88;80.38
51972;BME280;37991;49.662;10.060;2022-09-12T10:41:55;99375.69;;;18.84;80.43
51972;BME280;37991;49.662;10.060;2022-09-12T10:44:27;99372.75;;;18.95;80.33
51972;BME280;37991;49.662;10.060;2022-09-12T10:46:54;99372.28;;;18.99;78.48
51972;BME280;37991;49.662;10.060;2022-09-12T10:49:28;99374.13;;;19.07;78.52
51972;BME280;37991;49.662;10.060;2022-09-12T10:51:55;99368.88;;;19.40;76.90
51972;BME280;37991;49.662;10.060;2022-09-12T10:54:25;99369.03;;;19.30;77.65
51972;BME280;37991;49.662;10.060;2022-09-12T10:57:10;99364.41;;;19.48;76.56
51972;BME280;37991;49.662;10.060;2022-09-12T11:02:29;99353.97;;;19.47;76.23
51972;BME280;37991;49.662;10.060;2022-09-12T11:05:26;99347.66;;;19.48;74.52
51972;BME280;37991;49.662;10.060;2022-09-12T11:11:09;99341.56;;;19.80;73.08
51972;BME280;37991;49.662;10.060;2022-09-12T11:24:37;99319.75;;;20.17;71.01
51972;BME280;37991;49.662;10.060;2022-09-12T11:30:13;99314.78;;;20.06;71.30
51972;BME280;37991;49.662;10.060;2022-09-12T11:35:30;99316.56;;;20.30;69.16
51972;BME280;37991;49.662;10.060;2022-09-12T11:40:38;99306.63;;;20.16;71.93
51972;BME280;37991;49.662;10.060;2022-09-12T11:45:42;99302.97;;;20.17;71.77
51972;BME280;37991;49.662;10.060;2022-09-12T11:48:15;99299.94;;;20.28;71.47
51972;BME280;37991;49.662;10.060;2022-09-12T11:50:42;99300.47;;;20.24;71.17
51972;BME280;37991;49.662;10.060;2022-09-12T11:53:16;99294.75;;;20.35;70.91
51972;BME280;37991;49.662;10.060;2022-09-12T11:55:53;99295.94;;;20.32;70.63
51972;BME280;37991;49.662;10.060;2022-09-12T11:58:24;99296.25;;;20.37;71.74
51972;BME280;37991;49.662;10.060;2022-09-12T12:00:53;99291.03;;;20.60;69.89
51972;BME280;37991;49.662;10.060;2022-09-12T12:03:34;99296.59;;;20.42;70.51
51972;BME280;37991;49.662;10.060;2022-09-12T12:08:32;99289.72;;;20.48;70.38
51972;BME280;37991;49.662;10.060;2022-09-12T12:11:03;99284.47;;;20.40;70.24
51972;BME280;37991;49.662;10.060;2022-09-12T12:13:35;99292.44;;;20.40;70.61
51972;BME280;37991;49.662;10.060;2022-09-12T12:16:25;99288.75;;;20.41;69.55
51972;BME280;37991;49.662;10.060;2022-09-12T12:18:54;99278.47;;;20.38;69.74
51972;BME280;37991;49.662;10.060;2022-09-12T12:21:42;99273.81;;;20.40;70.32
51972;BME280;37991;49.662;10.060;2022-09-12T12:45:02;99257.16;;;20.85;68.39
51972;BME280;37991;49.662;10.060;2022-09-12T12:52:50;99245.75;;;21.23;65.33
51972;BME280;37991;49.662;10.060;2022-09-12T12:55:26;99236.22;;;21.05;65.67
51972;BME280;37991;49.662;10.060;2022-09-12T12:57:57;99246.00;;;20.90;65.01
51972;BME280;37991;49.662;10.060;2022-09-12T13:05:23;99228.25;;;21.28;64.68
51972;BME280;37991;49.662;10.060;2022-09-12T13:08:06;99225.16;;;21.17;65.35
51972;BME280;37991;49.662;10.060;2022-09-12T13:10:34;99221.84;;;21.14;65.08
51972;BME280;37991;49.662;10.060;2022-09-12T13:13:03;99229.09;;;21.06;65.25
51972;BME280;37991;49.662;10.060;2022-09-12T13:18:08;99206.28;;;21.03;65.64
51972;BME280;37991;49.662;10.060;2022-09-12T13:20:44;99208.72;;;20.90;66.19
51972;BME280;37991;49.662;10.060;2022-09-12T13:23:29;99202.50;;;20.98;64.75
51972;BME280;37991;49.662;10.060;2022-09-12T13:25:57;99199.91;;;21.12;64.53
51972;BME280;37991;49.662;10.060;2022-09-12T13:28:24;99197.28;;;21.04;64.28
51972;BME280;37991;49.662;10.060;2022-09-12T13:33:55;99197.34;;;21.42;63.38
51972;BME280;37991;49.662;10.060;2022-09-12T13:39:14;99195.41;;;21.36;63.31
51972;BME280;37991;49.662;10.060;2022-09-12T13:42:01;99190.97;;;21.28;63.27
51972;BME280;37991;49.662;10.060;2022-09-12T13:44:31;99187.09;;;21.54;61.37
51972;BME280;37991;49.662;10.060;2022-09-12T13:47:02;99189.75;;;21.54;62.00
51972;BME280;37991;49.662;10.060;2022-09-12T13:49:33;99191.56;;;21.53;61.62
51972;BME280;37991;49.662;10.060;2022-09-12T13:52:08;99183.22;;;21.56;61.56
51972;BME280;37991;49.662;10.060;2022-09-12T13:54:38;99180.13;;;21.68;61.17
51972;BME280;37991;49.662;10.060;2022-09-12T13:57:04;99171.81;;;21.63;61.17
51972;BME280;37991;49.662;10.060;2022-09-12T13:59:40;99178.34;;;21.45;62.61
51972;BME280;37991;49.662;10.060;2022-09-12T14:02:21;99175.25;;;21.33;63.72
51972;BME280;37991;49.662;10.060;2022-09-12T14:04:48;99178.25;;;21.30;63.78
51972;BME280;37991;49.662;10.060;2022-09-12T14:07:39;99176.16;;;21.26;63.71
51972;BME280;37991;49.662;10.060;2022-09-12T14:10:14;99172.72;;;21.40;62.53
51972;BME280;37991;49.662;10.060;2022-09-12T14:12:42;99170.34;;;21.45;61.76
51972;BME280;37991;49.662;10.060;2022-09-12T14:15:21;99160.41;;;21.39;62.16
51972;BME280;37991;49.662;10.060;2022-09-12T14:17:54;99161.34;;;21.46;62.13
51972;BME280;37991;49.662;10.060;2022-09-12T14:20:21;99163.44;;;21.36;62.89
51972;BME280;37991;49.662;10.060;2022-09-12T14:22:49;99163.31;;;21.29;63.26
51972;BME280;37991;49.662;10.060;2022-09-12T14:25:18;99154.53;;;21.21;62.53
51972;BME280;37991;49.662;10.060;2022-09-12T14:27:46;99153.91;;;21.19;64.41
51972;BME280;37991;49.662;10.060;2022-09-12T14:30:34;99158.94;;;21.13;64.42
51972;BME280;37991;49.662;10.060;2022-09-12T14:35:37;99142.66;;;21.31;63.41
51972;BME280;37991;49.662;10.060;2022-09-12T14:40:41;99135.34;;;21.10;64.93
51972;BME280;37991;49.662;10.060;2022-09-12T14:43:19;99138.66;;;21.27;63.55
51972;BME280;37991;49.662;10.060;2022-09-12T14:45:52;99143.22;;;21.56;61.07
51972;BME280;37991;49.662;10.060;2022-09-12T14:48:18;99142.13;;;21.36;61.73
51972;BME280;37991;49.662;10.060;2022-09-12T14:50:48;99129.03;;;21.26;62.45
51972;BME280;37991;49.662;10.060;2022-09-12T14:55:51;99136.88;;;21.05;64.40
51972;BME280;37991;49.662;10.060;2022-09-12T15:01:21;99125.47;;;20.96;64.14
51972;BME280;37991;49.662;10.060;2022-09-12T15:06:22;99128.50;;;20.93;64.96
51972;BME280;37991;49.662;10.060;2022-09-12T15:08:48;99125.00;;;20.93;63.75
51972;BME280;37991;49.662;10.060;2022-09-12T15:11:13;99124.47;;;20.97;63.87
51972;BME280;37991;49.662;10.060;2022-09-12T15:13:40;99117.09;;;20.99;64.13
51972;BME280;37991;49.662;10.060;2022-09-12T15:16:08;99118.69;;;20.94;64.63
51972;BME280;37991;49.662;10.060;2022-09-12T15:18:34;99112.22;;;20.88;65.31
51972;BME280;37991;49.662;10.060;2022-09-12T15:21:01;99114.94;;;20.80;65.69
51972;BME280;37991;49.662;10.060;2022-09-12T15:25:55;99106.97;;;21.18;62.58
51972;BME280;37991;49.662;10.060;2022-09-12T15:28:22;99112.34;;;20.95;63.45